Riverdale, North Dakota
Current Conditions -  °F | °C
As of 5:55 PM on Saturday 22 Nov 2014 (Local Time) from KHZE Reporting Station
Light Rain Light Rain  
Wind Chill:   Ceiling: 4000
Heat Index:   Visibility: 8mi
Dew Point:   Wind: 9mph
Humidity: 87%   Direction: 270°W
Pressure: 29.29"   Gusts: 21mph
Location:  47.5°N, 101.37°W
Report Text: KHZE 222355Z AUTO 27008G18KT 230V330 8SM -RA FEW033 BKN040 OVC065 05/03 A2929 RMK AO2
Loading
Personal Weather Stations






























Interactive Weather Map New forecast layout! Learn more

10-Day Weather Forecast

Advertisements
Track Severe Weather on mobile